sensor_id;sensor_type;location;lat;lon;timestamp;temperature;humidity
77052;SHT30;65980;44.898;8.602;2024-03-17T00:00:13;12.72;73.98
77052;SHT30;65980;44.898;8.602;2024-03-17T00:03:33;12.65;74.09
77052;SHT30;65980;44.898;8.602;2024-03-17T00:06:43;12.72;73.96
77052;SHT30;65980;44.898;8.602;2024-03-17T00:09:47;12.62;73.81
77052;SHT30;65980;44.898;8.602;2024-03-17T00:12:52;12.65;73.62
77052;SHT30;65980;44.898;8.602;2024-03-17T00:16:06;12.70;73.97
77052;SHT30;65980;44.898;8.602;2024-03-17T00:19:14;12.62;74.15
77052;SHT30;65980;44.898;8.602;2024-03-17T00:22:21;12.44;74.99
77052;SHT30;65980;44.898;8.602;2024-03-17T00:25:31;12.46;74.36
77052;SHT30;65980;44.898;8.602;2024-03-17T00:32:03;12.48;74.53
77052;SHT30;65980;44.898;8.602;2024-03-17T00:35:10;11.98;75.81
77052;SHT30;65980;44.898;8.602;2024-03-17T00:38:29;11.80;77.14
77052;SHT30;65980;44.898;8.602;2024-03-17T00:41:33;11.90;76.52
77052;SHT30;65980;44.898;8.602;2024-03-17T00:44:40;11.83;77.56
77052;SHT30;65980;44.898;8.602;2024-03-17T00:47:48;11.80;77.13
77052;SHT30;65980;44.898;8.602;2024-03-17T00:50:56;12.00;76.49
77052;SHT30;65980;44.898;8.602;2024-03-17T00:54:01;12.13;76.33
77052;SHT30;65980;44.898;8.602;2024-03-17T00:57:10;12.01;76.65
77052;SHT30;65980;44.898;8.602;2024-03-17T01:00:14;11.95;76.51
77052;SHT30;65980;44.898;8.602;2024-03-17T01:03:19;11.75;77.35
77052;SHT30;65980;44.898;8.602;2024-03-17T01:06:23;11.76;77.19
77052;SHT30;65980;44.898;8.602;2024-03-17T01:09:27;11.82;77.44
77052;SHT30;65980;44.898;8.602;2024-03-17T01:12:31;11.82;77.46
77052;SHT30;65980;44.898;8.602;2024-03-17T01:15:35;12.00;76.96
77052;SHT30;65980;44.898;8.602;2024-03-17T01:18:40;12.00;76.74
77052;SHT30;65980;44.898;8.602;2024-03-17T01:21:45;11.61;78.24
77052;SHT30;65980;44.898;8.602;2024-03-17T01:24:48;11.51;79.04
77052;SHT30;65980;44.898;8.602;2024-03-17T01:27:53;11.56;78.66
77052;SHT30;65980;44.898;8.602;2024-03-17T01:30:57;11.75;77.97
77052;SHT30;65980;44.898;8.602;2024-03-17T01:34:01;11.80;77.77
77052;SHT30;65980;44.898;8.602;2024-03-17T01:37:06;11.90;77.80
77052;SHT30;65980;44.898;8.602;2024-03-17T01:40:11;12.01;76.71
77052;SHT30;65980;44.898;8.602;2024-03-17T01:43:19;11.66;78.38
77052;SHT30;65980;44.898;8.602;2024-03-17T01:46:25;11.61;78.67
77052;SHT30;65980;44.898;8.602;2024-03-17T01:49:32;11.46;78.47
77052;SHT30;65980;44.898;8.602;2024-03-17T01:52:38;11.54;78.71
77052;SHT30;65980;44.898;8.602;2024-03-17T01:55:44;11.56;78.56
77052;SHT30;65980;44.898;8.602;2024-03-17T01:58:49;11.65;77.88
77052;SHT30;65980;44.898;8.602;2024-03-17T02:01:54;11.77;77.78
77052;SHT30;65980;44.898;8.602;2024-03-17T02:04:58;11.72;77.06
77052;SHT30;65980;44.898;8.602;2024-03-17T02:08:04;11.58;76.57
77052;SHT30;65980;44.898;8.602;2024-03-17T02:11:08;11.36;77.64
77052;SHT30;65980;44.898;8.602;2024-03-17T02:14:27;11.42;78.14
77052;SHT30;65980;44.898;8.602;2024-03-17T02:17:31;11.40;78.34
77052;SHT30;65980;44.898;8.602;2024-03-17T02:20:36;11.29;77.84
77052;SHT30;65980;44.898;8.602;2024-03-17T02:23:58;10.99;79.16
77052;SHT30;65980;44.898;8.602;2024-03-17T02:27:02;10.84;80.12
77052;SHT30;65980;44.898;8.602;2024-03-17T02:30:06;10.53;81.52
77052;SHT30;65980;44.898;8.602;2024-03-17T02:33:13;10.65;81.37
77052;SHT30;65980;44.898;8.602;2024-03-17T02:36:17;10.90;80.21
77052;SHT30;65980;44.898;8.602;2024-03-17T02:39:21;10.87;80.03
77052;SHT30;65980;44.898;8.602;2024-03-17T02:42:54;11.07;79.48
77052;SHT30;65980;44.898;8.602;2024-03-17T02:45:59;11.17;79.64
77052;SHT30;65980;44.898;8.602;2024-03-17T02:49:03;11.27;79.19
77052;SHT30;65980;44.898;8.602;2024-03-17T02:52:07;11.18;79.90
77052;SHT30;65980;44.898;8.602;2024-03-17T02:55:13;11.25;79.74
77052;SHT30;65980;44.898;8.602;2024-03-17T02:58:17;11.25;79.50
77052;SHT30;65980;44.898;8.602;2024-03-17T03:01:22;11.40;78.68
77052;SHT30;65980;44.898;8.602;2024-03-17T03:04:27;11.42;78.37
77052;SHT30;65980;44.898;8.602;2024-03-17T03:07:33;11.04;79.57
77052;SHT30;65980;44.898;8.602;2024-03-17T03:10:38;11.15;79.87
77052;SHT30;65980;44.898;8.602;2024-03-17T03:13:42;11.31;79.32
77052;SHT30;65980;44.898;8.602;2024-03-17T03:16:47;11.35;78.55
77052;SHT30;65980;44.898;8.602;2024-03-17T03:19:52;11.38;78.20
77052;SHT30;65980;44.898;8.602;2024-03-17T03:22:56;11.39;78.41
77052;SHT30;65980;44.898;8.602;2024-03-17T03:26:01;11.29;78.65
77052;SHT30;65980;44.898;8.602;2024-03-17T03:29:08;11.27;78.90
77052;SHT30;65980;44.898;8.602;2024-03-17T03:32:14;11.21;79.31
77052;SHT30;65980;44.898;8.602;2024-03-17T03:35:19;11.24;79.41
77052;SHT30;65980;44.898;8.602;2024-03-17T03:38:25;11.22;79.22
77052;SHT30;65980;44.898;8.602;2024-03-17T03:41:30;11.24;79.77
77052;SHT30;65980;44.898;8.602;2024-03-17T03:44:34;11.12;79.65
77052;SHT30;65980;44.898;8.602;2024-03-17T03:47:39;11.12;79.31
77052;SHT30;65980;44.898;8.602;2024-03-17T03:50:44;11.07;79.11
77052;SHT30;65980;44.898;8.602;2024-03-17T03:53:50;11.03;79.10
77052;SHT30;65980;44.898;8.602;2024-03-17T03:56:54;10.99;79.33
77052;SHT30;65980;44.898;8.602;2024-03-17T03:59:59;10.89;80.06
77052;SHT30;65980;44.898;8.602;2024-03-17T04:03:04;10.99;80.37
77052;SHT30;65980;44.898;8.602;2024-03-17T04:06:09;11.08;80.05
77052;SHT30;65980;44.898;8.602;2024-03-17T04:09:15;11.15;79.49
77052;SHT30;65980;44.898;8.602;2024-03-17T04:12:20;11.12;79.26
77052;SHT30;65980;44.898;8.602;2024-03-17T04:15:26;11.15;79.42
77052;SHT30;65980;44.898;8.602;2024-03-17T04:18:31;11.15;79.45
77052;SHT30;65980;44.898;8.602;2024-03-17T04:21:35;11.11;79.49
77052;SHT30;65980;44.898;8.602;2024-03-17T04:24:41;10.96;79.92
77052;SHT30;65980;44.898;8.602;2024-03-17T04:27:47;10.42;81.92
77052;SHT30;65980;44.898;8.602;2024-03-17T04:30:52;10.41;82.03
77052;SHT30;65980;44.898;8.602;2024-03-17T04:33:59;10.52;82.29
77052;SHT30;65980;44.898;8.602;2024-03-17T04:37:04;10.75;81.76
77052;SHT30;65980;44.898;8.602;2024-03-17T04:40:09;10.93;81.10
77052;SHT30;65980;44.898;8.602;2024-03-17T04:43:14;11.00;80.69
77052;SHT30;65980;44.898;8.602;2024-03-17T04:46:19;10.34;81.95
77052;SHT30;65980;44.898;8.602;2024-03-17T04:49:27;10.08;83.31
77052;SHT30;65980;44.898;8.602;2024-03-17T04:52:34;10.07;83.91
77052;SHT30;65980;44.898;8.602;2024-03-17T04:55:38;10.31;82.69
77052;SHT30;65980;44.898;8.602;2024-03-17T04:58:42;10.21;82.49
77052;SHT30;65980;44.898;8.602;2024-03-17T05:01:48;10.30;83.40
77052;SHT30;65980;44.898;8.602;2024-03-17T05:04:53;10.25;81.71
77052;SHT30;65980;44.898;8.602;2024-03-17T05:07:58;10.53;81.19
77052;SHT30;65980;44.898;8.602;2024-03-17T05:11:02;10.59;80.81
77052;SHT30;65980;44.898;8.602;2024-03-17T05:14:10;10.34;81.39
77052;SHT30;65980;44.898;8.602;2024-03-17T05:17:15;10.01;82.19
77052;SHT30;65980;44.898;8.602;2024-03-17T05:20:20;10.10;82.56
77052;SHT30;65980;44.898;8.602;2024-03-17T05:23:25;10.38;81.99
77052;SHT30;65980;44.898;8.602;2024-03-17T05:26:30;10.46;81.57
77052;SHT30;65980;44.898;8.602;2024-03-17T05:29:34;10.27;81.98
77052;SHT30;65980;44.898;8.602;2024-03-17T05:32:40;10.45;81.75
77052;SHT30;65980;44.898;8.602;2024-03-17T05:35:49;10.56;81.56
77052;SHT30;65980;44.898;8.602;2024-03-17T05:38:53;10.53;81.15
77052;SHT30;65980;44.898;8.602;2024-03-17T05:41:57;10.41;81.85
77052;SHT30;65980;44.898;8.602;2024-03-17T05:45:05;10.42;81.05
77052;SHT30;65980;44.898;8.602;2024-03-17T05:48:09;10.07;82.21
77052;SHT30;65980;44.898;8.602;2024-03-17T05:51:14;10.11;82.62
77052;SHT30;65980;44.898;8.602;2024-03-17T05:54:20;10.15;82.51
77052;SHT30;65980;44.898;8.602;2024-03-17T05:57:25;10.04;82.24
77052;SHT30;65980;44.898;8.602;2024-03-17T06:00:30;9.94;83.09
77052;SHT30;65980;44.898;8.602;2024-03-17T06:03:35;10.10;82.26
77052;SHT30;65980;44.898;8.602;2024-03-17T06:06:42;10.24;82.75
77052;SHT30;65980;44.898;8.602;2024-03-17T06:09:47;10.32;82.92
77052;SHT30;65980;44.898;8.602;2024-03-17T06:12:53;10.32;81.78
77052;SHT30;65980;44.898;8.602;2024-03-17T06:15:57;10.53;81.47
77052;SHT30;65980;44.898;8.602;2024-03-17T06:19:05;10.55;81.45
77052;SHT30;65980;44.898;8.602;2024-03-17T06:22:10;10.34;82.18
77052;SHT30;65980;44.898;8.602;2024-03-17T06:25:15;10.25;82.45
77052;SHT30;65980;44.898;8.602;2024-03-17T06:28:19;10.53;81.93
77052;SHT30;65980;44.898;8.602;2024-03-17T06:31:23;10.65;80.53
77052;SHT30;65980;44.898;8.602;2024-03-17T06:34:28;10.22;82.20
77052;SHT30;65980;44.898;8.602;2024-03-17T06:37:32;10.20;83.28
77052;SHT30;65980;44.898;8.602;2024-03-17T06:40:37;10.53;82.26
77052;SHT30;65980;44.898;8.602;2024-03-17T06:43:42;10.75;80.99
77052;SHT30;65980;44.898;8.602;2024-03-17T06:46:47;10.58;81.83
77052;SHT30;65980;44.898;8.602;2024-03-17T06:49:51;10.60;81.79
77052;SHT30;65980;44.898;8.602;2024-03-17T06:52:54;10.76;81.23
77052;SHT30;65980;44.898;8.602;2024-03-17T06:55:59;10.45;82.50
77052;SHT30;65980;44.898;8.602;2024-03-17T06:59:03;10.41;83.11
77052;SHT30;65980;44.898;8.602;2024-03-17T07:02:08;10.45;83.26
77052;SHT30;65980;44.898;8.602;2024-03-17T07:05:15;10.63;82.12
77052;SHT30;65980;44.898;8.602;2024-03-17T07:08:19;10.67;81.98
77052;SHT30;65980;44.898;8.602;2024-03-17T07:11:25;10.89;82.09
77052;SHT30;65980;44.898;8.602;2024-03-17T07:14:28;10.76;82.34
77052;SHT30;65980;44.898;8.602;2024-03-17T07:17:35;10.80;81.81
77052;SHT30;65980;44.898;8.602;2024-03-17T07:20:39;11.00;80.96
77052;SHT30;65980;44.898;8.602;2024-03-17T07:23:43;11.03;80.85
77052;SHT30;65980;44.898;8.602;2024-03-17T07:26:49;10.96;81.28
77052;SHT30;65980;44.898;8.602;2024-03-17T07:29:53;11.15;80.62
77052;SHT30;65980;44.898;8.602;2024-03-17T07:32:58;11.17;81.03
77052;SHT30;65980;44.898;8.602;2024-03-17T07:36:01;11.11;81.31
77052;SHT30;65980;44.898;8.602;2024-03-17T07:39:06;10.99;81.96
77052;SHT30;65980;44.898;8.602;2024-03-17T07:42:10;10.96;82.60
77052;SHT30;65980;44.898;8.602;2024-03-17T07:45:17;11.01;82.97
77052;SHT30;65980;44.898;8.602;2024-03-17T07:48:22;11.06;83.21
77052;SHT30;65980;44.898;8.602;2024-03-17T07:51:28;11.24;82.51
77052;SHT30;65980;44.898;8.602;2024-03-17T07:54:31;11.12;81.96
77052;SHT30;65980;44.898;8.602;2024-03-17T07:57:36;11.12;82.30
77052;SHT30;65980;44.898;8.602;2024-03-17T08:00:39;11.31;82.51
77052;SHT30;65980;44.898;8.602;2024-03-17T08:03:44;11.40;81.30
77052;SHT30;65980;44.898;8.602;2024-03-17T08:06:48;11.42;81.80
77052;SHT30;65980;44.898;8.602;2024-03-17T08:09:53;11.32;81.56
77052;SHT30;65980;44.898;8.602;2024-03-17T08:12:58;11.48;81.59
77052;SHT30;65980;44.898;8.602;2024-03-17T08:16:03;11.59;81.59
77052;SHT30;65980;44.898;8.602;2024-03-17T08:19:09;11.76;80.79
77052;SHT30;65980;44.898;8.602;2024-03-17T08:22:13;11.89;80.67
77052;SHT30;65980;44.898;8.602;2024-03-17T08:25:18;12.04;80.39
77052;SHT30;65980;44.898;8.602;2024-03-17T08:28:24;12.05;80.22
77052;SHT30;65980;44.898;8.602;2024-03-17T08:31:28;12.08;80.85
77052;SHT30;65980;44.898;8.602;2024-03-17T08:34:32;12.18;79.48
77052;SHT30;65980;44.898;8.602;2024-03-17T08:37:36;12.22;79.64
77052;SHT30;65980;44.898;8.602;2024-03-17T08:40:43;12.35;79.28
77052;SHT30;65980;44.898;8.602;2024-03-17T08:43:56;12.28;77.96
77052;SHT30;65980;44.898;8.602;2024-03-17T08:47:06;12.29;79.08
77052;SHT30;65980;44.898;8.602;2024-03-17T08:50:11;12.45;79.29
77052;SHT30;65980;44.898;8.602;2024-03-17T08:53:16;12.50;77.77
77052;SHT30;65980;44.898;8.602;2024-03-17T08:56:20;12.59;78.05
77052;SHT30;65980;44.898;8.602;2024-03-17T08:59:29;12.59;78.45
77052;SHT30;65980;44.898;8.602;2024-03-17T09:02:36;12.53;78.39
77052;SHT30;65980;44.898;8.602;2024-03-17T09:05:42;12.52;78.38
77052;SHT30;65980;44.898;8.602;2024-03-17T09:08:46;12.67;78.57
77052;SHT30;65980;44.898;8.602;2024-03-17T09:11:50;12.76;77.76
77052;SHT30;65980;44.898;8.602;2024-03-17T09:14:59;12.72;77.83
77052;SHT30;65980;44.898;8.602;2024-03-17T09:18:03;12.77;78.19
77052;SHT30;65980;44.898;8.602;2024-03-17T09:21:12;12.96;77.86
77052;SHT30;65980;44.898;8.602;2024-03-17T09:24:22;13.12;76.68
77052;SHT30;65980;44.898;8.602;2024-03-17T09:27:27;13.06;76.80
77052;SHT30;65980;44.898;8.602;2024-03-17T09:30:30;13.10;77.09
77052;SHT30;65980;44.898;8.602;2024-03-17T09:33:35;13.56;76.30
77052;SHT30;65980;44.898;8.602;2024-03-17T09:36:47;14.01;75.56
77052;SHT30;65980;44.898;8.602;2024-03-17T09:39:54;14.44;74.00
77052;SHT30;65980;44.898;8.602;2024-03-17T09:43:00;14.55;72.19
77052;SHT30;65980;44.898;8.602;2024-03-17T09:46:04;15.16;70.91
77052;SHT30;65980;44.898;8.602;2024-03-17T09:49:10;15.25;71.55
77052;SHT30;65980;44.898;8.602;2024-03-17T09:52:20;15.36;69.59
77052;SHT30;65980;44.898;8.602;2024-03-17T09:55:25;15.73;69.35
77052;SHT30;65980;44.898;8.602;2024-03-17T09:58:35;16.01;68.50
77052;SHT30;65980;44.898;8.602;2024-03-17T10:01:40;16.52;67.19
77052;SHT30;65980;44.898;8.602;2024-03-17T10:04:46;16.76;65.97
77052;SHT30;65980;44.898;8.602;2024-03-17T10:07:56;16.91;65.52
77052;SHT30;65980;44.898;8.602;2024-03-17T10:11:00;17.00;64.70
77052;SHT30;65980;44.898;8.602;2024-03-17T10:14:05;17.32;64.99
77052;SHT30;65980;44.898;8.602;2024-03-17T10:17:16;16.76;65.38
77052;SHT30;65980;44.898;8.602;2024-03-17T10:20:33;16.36;65.92
77052;SHT30;65980;44.898;8.602;2024-03-17T10:23:37;16.72;65.57
77052;SHT30;65980;44.898;8.602;2024-03-17T10:26:42;16.31;66.63
77052;SHT30;65980;44.898;8.602;2024-03-17T10:29:46;16.21;67.13
77052;SHT30;65980;44.898;8.602;2024-03-17T10:32:54;16.62;67.15
77052;SHT30;65980;44.898;8.602;2024-03-17T10:36:00;16.68;66.55
77052;SHT30;65980;44.898;8.602;2024-03-17T10:39:04;16.31;67.68
77052;SHT30;65980;44.898;8.602;2024-03-17T10:42:11;16.44;65.98
77052;SHT30;65980;44.898;8.602;2024-03-17T10:45:18;16.47;65.69
77052;SHT30;65980;44.898;8.602;2024-03-17T10:48:23;16.58;67.41
77052;SHT30;65980;44.898;8.602;2024-03-17T10:51:30;17.00;64.64
77052;SHT30;65980;44.898;8.602;2024-03-17T10:54:35;17.06;64.64
77052;SHT30;65980;44.898;8.602;2024-03-17T10:57:46;16.76;65.68
77052;SHT30;65980;44.898;8.602;2024-03-17T11:00:53;16.89;64.94
77052;SHT30;65980;44.898;8.602;2024-03-17T11:03:59;17.48;63.97
77052;SHT30;65980;44.898;8.602;2024-03-17T11:07:04;17.85;64.36
77052;SHT30;65980;44.898;8.602;2024-03-17T11:10:24;17.83;64.73
77052;SHT30;65980;44.898;8.602;2024-03-17T11:13:30;17.32;64.31
77052;SHT30;65980;44.898;8.602;2024-03-17T11:16:34;17.51;63.71
77052;SHT30;65980;44.898;8.602;2024-03-17T11:19:38;18.45;61.83
77052;SHT30;65980;44.898;8.602;2024-03-17T11:22:45;18.44;63.60
77052;SHT30;65980;44.898;8.602;2024-03-17T11:25:52;18.47;62.14
77052;SHT30;65980;44.898;8.602;2024-03-17T11:28:57;19.21;61.68
77052;SHT30;65980;44.898;8.602;2024-03-17T11:32:24;18.87;61.56
77052;SHT30;65980;44.898;8.602;2024-03-17T11:35:26;17.91;63.68
77052;SHT30;65980;44.898;8.602;2024-03-17T11:41:56;19.15;62.30
77052;SHT30;65980;44.898;8.602;2024-03-17T11:45:09;19.58;58.68
77052;SHT30;65980;44.898;8.602;2024-03-17T11:48:16;20.12;56.68
77052;SHT30;65980;44.898;8.602;2024-03-17T11:51:26;20.16;56.23
77052;SHT30;65980;44.898;8.602;2024-03-17T11:54:43;20.35;58.04
77052;SHT30;65980;44.898;8.602;2024-03-17T11:57:56;20.59;55.50
77052;SHT30;65980;44.898;8.602;2024-03-17T12:01:04;20.68;56.21
77052;SHT30;65980;44.898;8.602;2024-03-17T12:04:15;20.90;55.74
77052;SHT30;65980;44.898;8.602;2024-03-17T12:07:20;20.45;56.44
77052;SHT30;65980;44.898;8.602;2024-03-17T12:10:27;20.44;55.34
77052;SHT30;65980;44.898;8.602;2024-03-17T12:13:34;20.00;55.62
77052;SHT30;65980;44.898;8.602;2024-03-17T12:16:49;20.17;56.81
77052;SHT30;65980;44.898;8.602;2024-03-17T12:19:55;20.03;57.03
77052;SHT30;65980;44.898;8.602;2024-03-17T12:22:59;20.14;55.48
77052;SHT30;65980;44.898;8.602;2024-03-17T12:26:08;20.06;58.11
77052;SHT30;65980;44.898;8.602;2024-03-17T12:29:21;20.34;56.05
77052;SHT30;65980;44.898;8.602;2024-03-17T12:32:26;20.35;56.68
77052;SHT30;65980;44.898;8.602;2024-03-17T12:35:31;20.18;56.24
77052;SHT30;65980;44.898;8.602;2024-03-17T12:38:35;19.63;59.66
77052;SHT30;65980;44.898;8.602;2024-03-17T12:41:39;20.21;57.80
77052;SHT30;65980;44.898;8.602;2024-03-17T12:44:50;20.61;56.97
77052;SHT30;65980;44.898;8.602;2024-03-17T12:47:54;20.96;54.52
77052;SHT30;65980;44.898;8.602;2024-03-17T12:50:59;21.04;54.33
77052;SHT30;65980;44.898;8.602;2024-03-17T12:54:19;20.38;54.83
77052;SHT30;65980;44.898;8.602;2024-03-17T12:57:23;20.35;55.23
77052;SHT30;65980;44.898;8.602;2024-03-17T13:00:46;19.52;57.66
77052;SHT30;65980;44.898;8.602;2024-03-17T13:03:50;19.47;55.89
77052;SHT30;65980;44.898;8.602;2024-03-17T13:07:12;19.83;57.23
77052;SHT30;65980;44.898;8.602;2024-03-17T13:10:17;20.25;55.31
77052;SHT30;65980;44.898;8.602;2024-03-17T13:13:31;20.17;57.99
77052;SHT30;65980;44.898;8.602;2024-03-17T13:16:38;19.69;56.64
77052;SHT30;65980;44.898;8.602;2024-03-17T13:19:45;20.10;56.34
77052;SHT30;65980;44.898;8.602;2024-03-17T13:22:50;20.42;53.43
77052;SHT30;65980;44.898;8.602;2024-03-17T13:25:54;20.45;52.90
77052;SHT30;65980;44.898;8.602;2024-03-17T13:28:58;20.41;53.39
77052;SHT30;65980;44.898;8.602;2024-03-17T13:32:05;20.65;52.21
77052;SHT30;65980;44.898;8.602;2024-03-17T13:35:09;20.82;51.49
77052;SHT30;65980;44.898;8.602;2024-03-17T13:38:20;20.71;51.24
77052;SHT30;65980;44.898;8.602;2024-03-17T13:41:24;20.76;52.65
77052;SHT30;65980;44.898;8.602;2024-03-17T13:44:30;21.02;50.67
77052;SHT30;65980;44.898;8.602;2024-03-17T13:47:38;20.69;52.51
77052;SHT30;65980;44.898;8.602;2024-03-17T13:50:42;20.75;54.59
77052;SHT30;65980;44.898;8.602;2024-03-17T13:53:48;20.75;53.69
77052;SHT30;65980;44.898;8.602;2024-03-17T13:56:53;20.17;54.29
77052;SHT30;65980;44.898;8.602;2024-03-17T13:59:57;20.13;56.06
77052;SHT30;65980;44.898;8.602;2024-03-17T14:03:03;20.30;56.36
77052;SHT30;65980;44.898;8.602;2024-03-17T14:06:07;20.07;57.49
77052;SHT30;65980;44.898;8.602;2024-03-17T14:09:14;20.23;55.61
77052;SHT30;65980;44.898;8.602;2024-03-17T14:12:19;20.00;56.69
77052;SHT30;65980;44.898;8.602;2024-03-17T14:15:24;20.00;57.15
77052;SHT30;65980;44.898;8.602;2024-03-17T14:18:30;19.75;57.17
77052;SHT30;65980;44.898;8.602;2024-03-17T14:21:36;20.01;57.81
77052;SHT30;65980;44.898;8.602;2024-03-17T14:24:40;20.14;57.58
77052;SHT30;65980;44.898;8.602;2024-03-17T14:27:47;20.40;59.03
77052;SHT30;65980;44.898;8.602;2024-03-17T14:30:52;20.14;58.12
77052;SHT30;65980;44.898;8.602;2024-03-17T14:33:57;19.98;57.36
77052;SHT30;65980;44.898;8.602;2024-03-17T14:37:01;20.20;57.08
77052;SHT30;65980;44.898;8.602;2024-03-17T14:40:06;20.42;57.46
77052;SHT30;65980;44.898;8.602;2024-03-17T14:43:18;20.44;57.13
77052;SHT30;65980;44.898;8.602;2024-03-17T14:46:24;20.40;56.99
77052;SHT30;65980;44.898;8.602;2024-03-17T14:49:29;20.24;59.49
77052;SHT30;65980;44.898;8.602;2024-03-17T14:52:34;20.13;58.05
77052;SHT30;65980;44.898;8.602;2024-03-17T14:55:39;20.12;58.23
77052;SHT30;65980;44.898;8.602;2024-03-17T14:58:43;20.31;57.28
77052;SHT30;65980;44.898;8.602;2024-03-17T15:01:48;20.48;57.35
77052;SHT30;65980;44.898;8.602;2024-03-17T15:04:53;20.24;58.63
77052;SHT30;65980;44.898;8.602;2024-03-17T15:07:57;20.64;57.53
77052;SHT30;65980;44.898;8.602;2024-03-17T15:11:04;20.78;55.25
77052;SHT30;65980;44.898;8.602;2024-03-17T15:14:11;20.75;54.58
77052;SHT30;65980;44.898;8.602;2024-03-17T15:17:15;20.44;56.61
77052;SHT30;65980;44.898;8.602;2024-03-17T15:20:20;20.25;57.74
77052;SHT30;65980;44.898;8.602;2024-03-17T15:23:25;20.34;57.84
77052;SHT30;65980;44.898;8.602;2024-03-17T15:26:47;20.31;56.99
77052;SHT30;65980;44.898;8.602;2024-03-17T15:29:54;20.17;58.22
77052;SHT30;65980;44.898;8.602;2024-03-17T15:33:00;20.09;59.67
77052;SHT30;65980;44.898;8.602;2024-03-17T15:36:04;19.79;59.80
77052;SHT30;65980;44.898;8.602;2024-03-17T15:39:11;19.90;59.71
77052;SHT30;65980;44.898;8.602;2024-03-17T15:42:17;19.96;58.80
77052;SHT30;65980;44.898;8.602;2024-03-17T15:45:23;19.80;59.01
77052;SHT30;65980;44.898;8.602;2024-03-17T15:48:29;19.76;59.41
77052;SHT30;65980;44.898;8.602;2024-03-17T15:51:34;19.66;60.36
77052;SHT30;65980;44.898;8.602;2024-03-17T15:54:38;19.69;60.09
77052;SHT30;65980;44.898;8.602;2024-03-17T15:57:46;19.68;60.45
77052;SHT30;65980;44.898;8.602;2024-03-17T16:00:51;19.47;61.00
77052;SHT30;65980;44.898;8.602;2024-03-17T16:03:56;19.48;60.67
77052;SHT30;65980;44.898;8.602;2024-03-17T16:07:01;19.34;59.42
77052;SHT30;65980;44.898;8.602;2024-03-17T16:10:06;19.36;59.37
77052;SHT30;65980;44.898;8.602;2024-03-17T16:13:23;19.28;57.98
77052;SHT30;65980;44.898;8.602;2024-03-17T16:16:28;19.28;58.47
77052;SHT30;65980;44.898;8.602;2024-03-17T16:19:35;19.27;58.36
77052;SHT30;65980;44.898;8.602;2024-03-17T16:22:40;19.32;58.38
77052;SHT30;65980;44.898;8.602;2024-03-17T16:25:45;19.32;58.69
77052;SHT30;65980;44.898;8.602;2024-03-17T16:28:49;19.24;59.99
77052;SHT30;65980;44.898;8.602;2024-03-17T16:31:54;19.73;58.94
77052;SHT30;65980;44.898;8.602;2024-03-17T16:34:59;19.98;57.30
77052;SHT30;65980;44.898;8.602;2024-03-17T16:38:03;19.82;57.91
77052;SHT30;65980;44.898;8.602;2024-03-17T16:41:08;19.48;59.04
77052;SHT30;65980;44.898;8.602;2024-03-17T16:44:30;19.25;59.84
77052;SHT30;65980;44.898;8.602;2024-03-17T16:47:41;18.99;60.06
77052;SHT30;65980;44.898;8.602;2024-03-17T16:50:46;18.75;60.26
77052;SHT30;65980;44.898;8.602;2024-03-17T16:53:51;18.44;61.47
77052;SHT30;65980;44.898;8.602;2024-03-17T16:56:56;18.16;62.57
77052;SHT30;65980;44.898;8.602;2024-03-17T17:00:09;18.25;62.11
77052;SHT30;65980;44.898;8.602;2024-03-17T17:03:21;18.08;62.90
77052;SHT30;65980;44.898;8.602;2024-03-17T17:06:25;17.82;62.54
77052;SHT30;65980;44.898;8.602;2024-03-17T17:09:32;17.45;63.93
77052;SHT30;65980;44.898;8.602;2024-03-17T17:12:37;17.42;63.86
77052;SHT30;65980;44.898;8.602;2024-03-17T17:15:41;17.16;65.35
77052;SHT30;65980;44.898;8.602;2024-03-17T17:18:49;17.04;64.47
77052;SHT30;65980;44.898;8.602;2024-03-17T17:21:55;16.90;65.00
77052;SHT30;65980;44.898;8.602;2024-03-17T17:25:03;16.80;65.95
77052;SHT30;65980;44.898;8.602;2024-03-17T17:28:13;16.69;66.47
77052;SHT30;65980;44.898;8.602;2024-03-17T17:31:18;16.32;67.55
77052;SHT30;65980;44.898;8.602;2024-03-17T17:34:22;16.35;68.01
77052;SHT30;65980;44.898;8.602;2024-03-17T17:37:31;16.22;68.15
77052;SHT30;65980;44.898;8.602;2024-03-17T17:40:39;16.11;68.55
77052;SHT30;65980;44.898;8.602;2024-03-17T17:43:43;16.10;68.15
77052;SHT30;65980;44.898;8.602;2024-03-17T17:46:49;15.97;68.55
77052;SHT30;65980;44.898;8.602;2024-03-17T17:49:55;15.83;68.89
77052;SHT30;65980;44.898;8.602;2024-03-17T17:53:01;15.86;68.87
77052;SHT30;65980;44.898;8.602;2024-03-17T17:56:07;15.80;68.81
77052;SHT30;65980;44.898;8.602;2024-03-17T17:59:17;15.67;69.16
77052;SHT30;65980;44.898;8.602;2024-03-17T18:02:29;15.70;68.94
77052;SHT30;65980;44.898;8.602;2024-03-17T18:05:37;15.59;69.29
77052;SHT30;65980;44.898;8.602;2024-03-17T18:08:44;15.52;70.10
77052;SHT30;65980;44.898;8.602;2024-03-17T18:11:49;15.49;70.14
77052;SHT30;65980;44.898;8.602;2024-03-17T18:14:53;15.46;69.88
77052;SHT30;65980;44.898;8.602;2024-03-17T18:18:02;15.38;70.46
77052;SHT30;65980;44.898;8.602;2024-03-17T18:21:08;15.38;70.34
77052;SHT30;65980;44.898;8.602;2024-03-17T18:24:14;15.18;70.86
77052;SHT30;65980;44.898;8.602;2024-03-17T18:27:19;15.28;70.59
77052;SHT30;65980;44.898;8.602;2024-03-17T18:30:23;14.99;71.41
77052;SHT30;65980;44.898;8.602;2024-03-17T18:33:29;15.14;71.17
77052;SHT30;65980;44.898;8.602;2024-03-17T18:36:34;15.00;71.26
77052;SHT30;65980;44.898;8.602;2024-03-17T18:39:40;15.10;71.22
77052;SHT30;65980;44.898;8.602;2024-03-17T18:42:47;14.90;71.28
77052;SHT30;65980;44.898;8.602;2024-03-17T18:45:54;14.82;72.07
77052;SHT30;65980;44.898;8.602;2024-03-17T18:48:58;14.84;71.78
77052;SHT30;65980;44.898;8.602;2024-03-17T18:52:09;14.76;71.87
77052;SHT30;65980;44.898;8.602;2024-03-17T18:55:13;14.66;72.68
77052;SHT30;65980;44.898;8.602;2024-03-17T18:58:19;14.71;72.05
77052;SHT30;65980;44.898;8.602;2024-03-17T19:01:24;14.73;72.54
77052;SHT30;65980;44.898;8.602;2024-03-17T19:04:30;14.65;72.52
77052;SHT30;65980;44.898;8.602;2024-03-17T19:07:37;14.54;72.63
77052;SHT30;65980;44.898;8.602;2024-03-17T19:10:42;14.59;72.56
77052;SHT30;65980;44.898;8.602;2024-03-17T19:13:51;14.51;72.64
77052;SHT30;65980;44.898;8.602;2024-03-17T19:17:02;14.38;72.71
77052;SHT30;65980;44.898;8.602;2024-03-17T19:20:10;14.41;72.73
77052;SHT30;65980;44.898;8.602;2024-03-17T19:23:20;14.42;72.33
77052;SHT30;65980;44.898;8.602;2024-03-17T19:26:29;14.38;72.73
77052;SHT30;65980;44.898;8.602;2024-03-17T19:29:35;14.39;72.58
77052;SHT30;65980;44.898;8.602;2024-03-17T19:32:42;14.28;73.10
77052;SHT30;65980;44.898;8.602;2024-03-17T19:35:52;14.31;72.36
77052;SHT30;65980;44.898;8.602;2024-03-17T19:38:58;14.32;72.80
77052;SHT30;65980;44.898;8.602;2024-03-17T19:42:17;14.28;72.96